Time;durP1;ratioP1;P1;durP2;ratioP2;P2;SDS_P1;SDS_P2;PMS_P1;PMS_P2;Temp;Humidity;BMP_temperature;BMP_pressure;BME280_temperature;BME280_humidity;BME280_pressure;Samples;Min_cycle;Max_cycle;Signal;HPM_P1;HPM_P2
2023/01/03 00:00:45;;;;;;;13.70;5.55;;;3.40;99.90;;;;;;5048016;28;20405;-75
2023/01/03 00:03:15;;;;;;;11.18;5.25;;;3.40;99.90;;;;;;5048332;28;20050;-76
2023/01/03 00:05:46;;;;;;;14.05;5.28;;;3.40;99.90;;;;;;5062262;28;20389;-76
2023/01/03 00:08:14;;;;;;;13.93;6.05;;;3.40;99.90;;;;;;5081098;28;20040;-75
2023/01/03 00:10:40;;;;;;;11.35;5.13;;;3.40;99.90;;;;;;5062046;28;20126;-76
2023/01/03 00:13:06;;;;;;;10.90;5.13;;;3.40;99.90;;;;;;5063831;28;20374;-75
2023/01/03 00:15:36;;;;;;;10.95;5.57;;;3.40;99.90;;;;;;5061126;28;20036;-76
2023/01/03 00:18:02;;;;;;;13.15;5.13;;;3.40;99.90;;;;;;5048062;28;20052;-76
2023/01/03 00:20:27;;;;;;;10.52;5.20;;;3.50;99.90;;;;;;5062618;28;20122;-76
2023/01/03 00:22:53;;;;;;;16.00;5.25;;;3.50;99.90;;;;;;5061238;28;20078;-75
2023/01/03 00:25:19;;;;;;;11.50;5.43;;;3.50;99.90;;;;;;5062530;28;20523;-75
2023/01/03 00:27:44;;;;;;;11.43;5.32;;;3.60;99.90;;;;;;5076489;28;20044;-76
2023/01/03 00:30:10;;;;;;;13.43;5.07;;;3.60;99.90;;;;;;5047810;28;20637;-76
2023/01/03 00:32:36;;;;;;;9.48;5.35;;;3.60;99.90;;;;;;5063569;28;20419;-75
2023/01/03 00:35:01;;;;;;;9.23;4.97;;;3.60;99.90;;;;;;5045235;28;20048;-75
2023/01/03 00:37:27;;;;;;;16.95;5.43;;;3.60;99.90;;;;;;5062886;28;20032;-75
2023/01/03 00:39:52;;;;;;;14.10;5.15;;;3.60;99.90;;;;;;5063643;28;20032;-75
2023/01/03 00:42:18;;;;;;;13.18;4.90;;;3.60;99.90;;;;;;5060904;28;20048;-76
2023/01/03 00:44:43;;;;;;;10.00;4.95;;;3.60;99.90;;;;;;5046879;28;20127;-76
2023/01/03 00:47:09;;;;;;;12.10;5.00;;;3.60;99.90;;;;;;5046349;28;20139;-75
2023/01/03 00:49:35;;;;;;;12.02;5.43;;;3.60;99.90;;;;;;5063123;28;20127;-75
2023/01/03 00:52:00;;;;;;;8.68;4.60;;;3.70;99.90;;;;;;5044573;28;20032;-76
2023/01/03 00:54:26;;;;;;;10.32;4.55;;;3.70;99.90;;;;;;5063708;28;20055;-76
2023/01/03 00:56:52;;;;;;;10.60;4.60;;;3.70;99.90;;;;;;5065643;28;20039;-75
2023/01/03 00:59:19;;;;;;;11.95;4.38;;;3.70;99.90;;;;;;5062176;28;20075;-75
2023/01/03 01:01:48;;;;;;;11.38;4.20;;;3.70;99.90;;;;;;5076643;28;20044;-76
2023/01/03 01:04:22;;;;;;;13.07;4.68;;;3.80;99.90;;;;;;5056357;28;20052;-75
2023/01/03 01:07:00;;;;;;;11.18;4.50;;;3.80;99.90;;;;;;5059016;28;20029;-75
2023/01/03 01:09:33;;;;;;;10.05;5.05;;;3.80;99.90;;;;;;5046079;28;20086;-75
2023/01/03 01:11:58;;;;;;;14.25;5.20;;;3.80;99.90;;;;;;5060781;28;20497;-76
2023/01/03 01:14:26;;;;;;;9.75;4.75;;;3.90;99.90;;;;;;5061438;28;20044;-76
2023/01/03 01:16:58;;;;;;;12.38;4.90;;;3.90;99.90;;;;;;5043187;28;20397;-76
2023/01/03 01:19:32;;;;;;;11.43;5.22;;;3.90;99.90;;;;;;5061747;28;20082;-76
2023/01/03 01:21:58;;;;;;;11.65;5.25;;;3.90;99.90;;;;;;5045300;28;20131;-76
2023/01/03 01:24:24;;;;;;;11.80;5.00;;;3.90;99.90;;;;;;5046481;28;20036;-76
2023/01/03 01:26:51;;;;;;;14.45;5.40;;;3.90;99.90;;;;;;5061706;28;20040;-76
2023/01/03 01:29:17;;;;;;;13.52;5.20;;;4.00;99.90;;;;;;5060674;28;20044;-76
2023/01/03 01:31:44;;;;;;;11.88;5.07;;;4.00;99.90;;;;;;5046337;28;20518;-76
2023/01/03 01:34:10;;;;;;;10.98;5.30;;;4.00;99.90;;;;;;5063398;28;20119;-75
2023/01/03 01:36:38;;;;;;;9.95;5.22;;;4.00;99.90;;;;;;5045484;28;20127;-75
2023/01/03 01:39:06;;;;;;;19.38;5.47;;;4.00;99.90;;;;;;5061391;28;20048;-76
2023/01/03 01:44:46;;;;;;;12.25;5.15;;;4.00;99.90;;;;;;5063988;28;20048;-76
2023/01/03 01:47:27;;;;;;;11.70;5.10;;;4.10;99.90;;;;;;5061910;28;20040;-75
2023/01/03 01:50:23;;;;;;;11.80;5.10;;;4.10;99.90;;;;;;5060881;28;20257;-76
2023/01/03 01:53:01;;;;;;;10.13;4.72;;;4.10;99.90;;;;;;5061147;28;20475;-75
2023/01/03 01:55:34;;;;;;;9.75;4.68;;;4.10;99.90;;;;;;5062353;28;20476;-76
2023/01/03 01:58:00;;;;;;;11.40;5.03;;;4.10;99.90;;;;;;5061168;28;20032;-75
2023/01/03 02:00:27;;;;;;;11.73;5.00;;;4.10;99.90;;;;;;5060868;28;20039;-76
2023/01/03 02:02:54;;;;;;;11.43;5.15;;;4.10;99.90;;;;;;5060590;28;20377;-76
2023/01/03 02:05:21;;;;;;;14.98;5.30;;;4.10;99.90;;;;;;5062085;28;20355;-76
2023/01/03 02:07:49;;;;;;;11.23;4.88;;;4.10;99.90;;;;;;5062528;28;20071;-76
2023/01/03 02:10:16;;;;;;;15.23;5.38;;;4.10;99.90;;;;;;5059942;28;20040;-76
2023/01/03 02:15:50;;;;;;;13.40;5.13;;;4.20;99.90;;;;;;5063442;28;20049;-76
2023/01/03 02:18:55;;;;;;;12.18;5.03;;;4.20;99.90;;;;;;5049177;28;20051;-76
2023/01/03 02:21:33;;;;;;;10.75;5.28;;;4.20;99.90;;;;;;5050760;28;20044;-75
2023/01/03 02:24:26;;;;;;;11.35;4.50;;;4.20;99.90;;;;;;5063820;28;20041;-75
2023/01/03 02:26:57;;;;;;;9.38;4.70;;;4.10;99.90;;;;;;5065955;28;20070;-76
2023/01/03 02:29:41;;;;;;;12.18;4.80;;;4.10;99.90;;;;;;5050723;28;20435;-76
2023/01/03 02:32:40;;;;;;;10.95;5.15;;;4.10;99.90;;;;;;5078931;28;20043;-75
2023/01/03 02:35:23;;;;;;;7.15;4.57;;;4.10;99.90;;;;;;5063472;28;20039;-75
2023/01/03 02:38:13;;;;;;;11.25;4.88;;;4.10;99.90;;;;;;5080946;28;20139;-76
2023/01/03 02:40:44;;;;;;;9.57;4.70;;;4.00;99.90;;;;;;5063254;28;20056;-76
2023/01/03 02:43:41;;;;;;;11.45;4.82;;;3.90;99.90;;;;;;5066385;28;20029;-76
2023/01/03 02:46:36;;;;;;;13.93;5.18;;;3.80;99.90;;;;;;5062783;28;20038;-76
2023/01/03 02:49:23;;;;;;;9.25;4.68;;;3.70;99.90;;;;;;5053049;28;20047;-76
2023/01/03 02:52:02;;;;;;;13.73;4.88;;;3.50;99.90;;;;;;5066699;28;20048;-76
2023/01/03 02:54:43;;;;;;;10.15;4.65;;;3.40;99.90;;;;;;5048440;28;20040;-75
2023/01/03 02:57:16;;;;;;;9.88;4.38;;;3.20;99.90;;;;;;5050366;28;20040;-75
2023/01/03 02:59:42;;;;;;;10.85;5.13;;;3.20;99.90;;;;;;5064608;28;20162;-76
2023/01/03 03:02:10;;;;;;;12.82;5.10;;;3.10;99.90;;;;;;5049003;28;20040;-75
2023/01/03 03:04:38;;;;;;;12.95;5.30;;;3.00;99.90;;;;;;5047278;28;20460;-75
2023/01/03 03:07:30;;;;;;;10.98;5.68;;;2.90;99.90;;;;;;5065364;28;20525;-75
2023/01/03 03:15:36;;;;;;;11.20;5.03;;;2.70;99.90;;;;;;5060273;28;20132;-75
2023/01/03 03:18:17;;;;;;;8.75;4.90;;;2.60;99.90;;;;;;5048183;28;20047;-76
2023/01/03 03:26:20;;;;;;;11.80;5.45;;;2.40;99.90;;;;;;5063537;28;20048;-76
2023/01/03 03:28:49;;;;;;;10.35;5.15;;;2.40;99.90;;;;;;5063910;28;20051;-76
2023/01/03 03:31:28;;;;;;;13.32;5.63;;;2.30;99.90;;;;;;5064501;28;20044;-76
2023/01/03 03:34:18;;;;;;;15.15;5.05;;;2.20;99.90;;;;;;5065259;28;20045;-76
2023/01/03 03:37:04;;;;;;;11.05;5.20;;;2.20;99.90;;;;;;5065606;28;20032;-76
2023/01/03 03:45:30;;;;;;;12.35;5.30;;;2.10;99.90;;;;;;4988366;28;20111;-75
2023/01/03 03:48:17;;;;;;;12.02;5.75;;;2.20;99.90;;;;;;4988267;28;20053;-76
2023/01/03 03:50:51;;;;;;;16.30;6.30;;;2.20;99.90;;;;;;4987695;28;20060;-76
2023/01/03 03:53:18;;;;;;;;;;;2.20;99.90;;;;;;4987733;28;20557;-76
2023/01/03 03:56:03;;;;;;;13.48;5.80;;;2.20;99.90;;;;;;4970660;28;19932;-75
2023/01/03 03:58:33;;;;;;;13.30;6.07;;;2.20;99.90;;;;;;4987348;28;20050;-75
2023/01/03 04:01:00;;;;;;;18.23;6.65;;;2.20;99.90;;;;;;4971835;28;20503;-76
2023/01/03 04:03:27;;;;;;;16.00;6.25;;;2.10;99.90;;;;;;5004136;28;20050;-76
2023/01/03 04:06:00;;;;;;;16.40;6.55;;;2.10;99.90;;;;;;4971080;28;20049;-75
2023/01/03 04:08:25;;;;;;;13.68;6.47;;;2.00;99.90;;;;;;4987179;28;20124;-76
2023/01/03 04:10:51;;;;;;;13.45;6.10;;;2.00;99.90;;;;;;4987806;28;20045;-75
2023/01/03 04:13:17;;;;;;;12.68;6.40;;;2.00;99.90;;;;;;4986514;28;20042;-75
2023/01/03 04:15:42;;;;;;;17.38;7.68;;;2.00;99.90;;;;;;5007318;28;20583;-75
2023/01/03 04:18:08;;;;;;;14.55;7.07;;;2.00;99.90;;;;;;5062452;28;20037;-76
2023/01/03 04:20:33;;;;;;;16.00;6.97;;;1.90;99.90;;;;;;5042863;28;20128;-76
2023/01/03 04:22:59;;;;;;;13.40;6.70;;;2.00;99.90;;;;;;5061763;28;20033;-76
2023/01/03 04:25:25;;;;;;;14.50;7.60;;;1.90;99.90;;;;;;5062239;28;20120;-76
2023/01/03 04:27:51;;;;;;;14.73;7.22;;;2.00;99.90;;;;;;5063419;28;20048;-75
2023/01/03 04:30:16;;;;;;;17.63;8.05;;;2.00;99.90;;;;;;5064899;28;20032;-75
2023/01/03 04:32:42;;;;;;;13.45;7.43;;;2.10;99.90;;;;;;5062583;28;20041;-75
2023/01/03 04:35:08;;;;;;;19.42;7.88;;;2.10;99.90;;;;;;5064237;28;20037;-76
2023/01/03 04:37:34;;;;;;;14.40;6.97;;;2.10;99.90;;;;;;5063058;28;20044;-76
2023/01/03 04:39:59;;;;;;;17.42;7.38;;;2.10;99.90;;;;;;5044235;28;20068;-76
2023/01/03 04:45:10;;;;;;;14.85;7.88;;;2.20;99.90;;;;;;5063442;28;20083;-76
2023/01/03 04:47:35;;;;;;;18.10;8.95;;;2.20;99.90;;;;;;5062286;28;20094;-76
2023/01/03 04:50:01;;;;;;;20.08;8.82;;;2.30;99.90;;;;;;5062250;28;20561;-76
2023/01/03 04:52:28;;;;;;;18.40;8.73;;;2.30;99.90;;;;;;5063474;28;20043;-76
2023/01/03 04:54:53;;;;;;;23.15;10.88;;;2.30;99.90;;;;;;5059828;28;20047;-76
2023/01/03 04:57:19;;;;;;;23.13;10.63;;;2.40;99.90;;;;;;5063166;28;20033;-76
2023/01/03 04:59:45;;;;;;;25.83;10.38;;;2.40;99.90;;;;;;5046470;28;20045;-75
2023/01/03 05:02:10;;;;;;;25.63;10.52;;;2.50;99.90;;;;;;5063651;28;20060;-76
2023/01/03 05:04:36;;;;;;;23.85;11.73;;;2.50;99.90;;;;;;5061528;28;20127;-76
2023/01/03 05:07:01;;;;;;;24.05;10.93;;;2.50;99.90;;;;;;5066071;28;20044;-76
2023/01/03 05:09:27;;;;;;;22.58;11.43;;;2.50;99.90;;;;;;5061032;28;20044;-75
2023/01/03 05:11:52;;;;;;;23.42;11.50;;;2.60;99.90;;;;;;5061958;28;20131;-76
2023/01/03 05:14:18;;;;;;;23.58;10.95;;;2.60;99.90;;;;;;5062304;28;20036;-76
2023/01/03 05:16:44;;;;;;;24.25;11.25;;;2.60;99.90;;;;;;5059278;28;20132;-76
2023/01/03 05:19:09;;;;;;;25.38;11.40;;;2.60;99.90;;;;;;5065602;28;20146;-76
2023/01/03 05:27:05;;;;;;;21.58;11.57;;;2.60;99.90;;;;;;5062266;28;20048;-76
2023/01/03 05:29:33;;;;;;;29.00;11.88;;;2.60;99.90;;;;;;5062025;28;20052;-76
2023/01/03 05:31:59;;;;;;;27.58;12.85;;;2.60;99.90;;;;;;5060308;28;20078;-76
2023/01/03 05:34:24;;;;;;;27.63;12.70;;;2.60;99.90;;;;;;5063455;28;20045;-76
2023/01/03 05:36:50;;;;;;;30.25;13.63;;;2.60;99.90;;;;;;5064098;28;20057;-76
2023/01/03 05:39:16;;;;;;;27.67;13.02;;;2.60;99.90;;;;;;5061855;28;20032;-76
2023/01/03 05:41:59;;;;;;;28.35;13.40;;;2.50;99.90;;;;;;5064166;28;20041;-76
2023/01/03 05:44:30;;;;;;;26.20;12.73;;;2.50;99.90;;;;;;5062423;28;20471;-76
2023/01/03 05:46:57;;;;;;;29.70;13.55;;;2.50;99.90;;;;;;5062726;28;20310;-76
2023/01/03 05:49:23;;;;;;;30.83;14.05;;;2.50;99.90;;;;;;5063750;28;20036;-76
2023/01/03 05:51:48;;;;;;;32.60;13.35;;;2.50;99.90;;;;;;5065802;28;20637;-76
2023/01/03 05:54:16;;;;;;;33.90;13.80;;;2.50;99.90;;;;;;5067051;28;20044;-76
2023/01/03 05:56:41;;;;;;;32.90;14.82;;;2.60;99.90;;;;;;5066046;28;20045;-76
2023/01/03 05:59:07;;;;;;;31.60;15.02;;;2.60;99.90;;;;;;5065339;28;20078;-76
2023/01/03 06:01:33;;;;;;;32.50;14.75;;;2.60;99.90;;;;;;5066061;28;20041;-75
2023/01/03 06:03:59;;;;;;;32.20;14.68;;;2.70;99.90;;;;;;5064788;28;20045;-76
2023/01/03 06:06:25;;;;;;;36.95;16.88;;;2.60;99.90;;;;;;5065155;28;20067;-75
2023/01/03 06:08:50;;;;;;;34.15;16.20;;;2.60;99.90;;;;;;5065867;28;20492;-76
2023/01/03 06:11:17;;;;;;;37.10;15.35;;;2.60;99.90;;;;;;5064046;28;20422;-76
2023/01/03 06:13:43;;;;;;;38.20;16.95;;;2.60;99.90;;;;;;5064653;28;20395;-75
2023/01/03 06:18:58;;;;;;;35.60;16.75;;;2.60;99.90;;;;;;5064364;28;20045;-76
2023/01/03 06:21:24;;;;;;;33.55;15.88;;;2.60;99.90;;;;;;5063128;28;20139;-76
2023/01/03 06:23:50;;;;;;;41.88;18.23;;;2.50;99.90;;;;;;5063943;28;20045;-76
2023/01/03 06:26:18;;;;;;;42.90;19.33;;;2.50;99.90;;;;;;5065349;28;20040;-76
2023/01/03 06:28:44;;;;;;;36.67;18.02;;;2.50;99.90;;;;;;5064045;28;20044;-76
2023/01/03 06:31:10;;;;;;;41.58;19.35;;;2.40;99.90;;;;;;5064677;28;20041;-75
2023/01/03 06:33:36;;;;;;;49.00;20.38;;;2.40;99.90;;;;;;5046577;28;20044;-76
2023/01/03 06:36:07;;;;;;;42.95;19.05;;;2.40;99.90;;;;;;5066964;28;20043;-76
2023/01/03 06:38:34;;;;;;;46.88;20.45;;;2.30;99.90;;;;;;5048924;28;20530;-75
2023/01/03 06:41:00;;;;;;;49.13;22.05;;;2.30;99.90;;;;;;5063847;28;20044;-75
2023/01/03 06:43:26;;;;;;;50.15;21.77;;;2.20;99.90;;;;;;5065799;28;20068;-76
2023/01/03 06:54:08;;;;;;;50.00;21.05;;;2.10;99.90;;;;;;5062889;28;20048;-75
2023/01/03 06:56:34;;;;;;;49.15;22.50;;;2.00;99.90;;;;;;5062912;28;20044;-76
2023/01/03 06:59:00;;;;;;;50.13;21.67;;;2.00;99.90;;;;;;5061578;28;20039;-76
2023/01/03 07:01:26;;;;;;;50.05;21.80;;;1.90;99.90;;;;;;5064692;28;20039;-76
2023/01/03 07:03:52;;;;;;;50.60;21.15;;;1.90;99.90;;;;;;5062546;28;20041;-75
2023/01/03 07:06:17;;;;;;;52.72;22.50;;;1.90;99.90;;;;;;5064357;28;20403;-76
2023/01/03 07:08:43;;;;;;;52.55;21.77;;;1.90;99.90;;;;;;5063690;28;20127;-76
2023/01/03 07:11:08;;;;;;;50.42;20.92;;;1.80;99.90;;;;;;5061319;28;20047;-76
2023/01/03 07:16:19;;;;;;;52.50;21.80;;;1.80;99.90;;;;;;5064792;28;20044;-76
2023/01/03 07:18:46;;;;;;;53.55;22.20;;;1.80;99.90;;;;;;5065986;28;20070;-76
2023/01/03 07:21:11;;;;;;;52.75;21.40;;;1.70;99.90;;;;;;5064800;28;20044;-76
2023/01/03 07:23:37;;;;;;;50.85;21.45;;;1.70;99.90;;;;;;5064837;28;20036;-76
2023/01/03 07:26:04;;;;;;;46.53;22.02;;;1.70;99.90;;;;;;5066588;28;20408;-76
2023/01/03 07:28:30;;;;;;;48.40;21.35;;;1.70;99.90;;;;;;5050208;28;20058;-76
2023/01/03 07:31:00;;;;;;;52.70;23.15;;;1.70;99.90;;;;;;5063567;28;20588;-76
2023/01/03 07:33:26;;;;;;;45.30;21.10;;;1.70;99.90;;;;;;5078395;28;20487;-76
2023/01/03 07:35:51;;;;;;;49.05;20.75;;;1.70;99.90;;;;;;5062145;28;20037;-76
2023/01/03 07:38:17;;;;;;;45.58;20.73;;;1.70;99.90;;;;;;5063273;28;20385;-76
2023/01/03 07:40:42;;;;;;;45.83;20.65;;;1.70;99.90;;;;;;5048685;28;20060;-75
2023/01/03 07:45:55;;;;;;;41.88;19.55;;;1.80;99.90;;;;;;5081790;28;20076;-76
2023/01/03 07:48:21;;;;;;;42.35;18.23;;;1.80;99.90;;;;;;5078566;28;20083;-76
2023/01/03 07:50:47;;;;;;;47.78;19.33;;;1.70;99.90;;;;;;5064620;28;20052;-76
2023/01/03 07:53:15;;;;;;;40.88;19.33;;;1.70;99.90;;;;;;5065502;28;20578;-76
2023/01/03 07:55:43;;;;;;;42.88;19.85;;;1.70;99.90;;;;;;5064442;28;20068;-75
2023/01/03 07:58:09;;;;;;;39.33;18.17;;;1.70;99.90;;;;;;5064630;28;20043;-75
2023/01/03 08:00:35;;;;;;;40.03;18.55;;;1.70;99.90;;;;;;5062729;28;20105;-76
2023/01/03 08:03:00;;;;;;;40.65;17.88;;;1.80;99.90;;;;;;5048672;28;20055;-75
2023/01/03 08:05:26;;;;;;;34.22;16.92;;;1.70;99.90;;;;;;5066303;28;20494;-76
2023/01/03 08:07:52;;;;;;;39.95;18.15;;;1.70;99.90;;;;;;5063635;28;20039;-76
2023/01/03 08:13:16;;;;;;;37.40;17.35;;;1.60;99.90;;;;;;5061779;28;20049;-76
2023/01/03 08:15:49;;;;;;;38.15;17.15;;;1.60;99.90;;;;;;5065105;28;20044;-76
2023/01/03 08:18:18;;;;;;;37.90;16.42;;;1.60;99.90;;;;;;5049135;28;20110;-76
2023/01/03 08:20:43;;;;;;;34.85;17.10;;;1.70;99.90;;;;;;5049110;28;20509;-76
2023/01/03 08:23:09;;;;;;;35.42;16.80;;;1.70;99.90;;;;;;5063622;28;20039;-76
2023/01/03 08:25:35;;;;;;;36.20;17.85;;;1.70;99.90;;;;;;5066876;28;20161;-76
2023/01/03 08:28:02;;;;;;;30.20;14.30;;;1.80;99.90;;;;;;5066649;28;20036;-75
2023/01/03 08:30:28;;;;;;;37.88;17.80;;;1.90;99.90;;;;;;5066108;28;20075;-76
2023/01/03 08:32:54;;;;;;;38.30;18.23;;;2.00;99.90;;;;;;5062024;28;20475;-76
2023/01/03 08:35:23;;;;;;;37.47;16.98;;;2.10;99.90;;;;;;5048131;28;20446;-76
2023/01/03 08:37:49;;;;;;;33.83;17.95;;;2.20;99.90;;;;;;5063158;28;20045;-76
2023/01/03 08:40:17;;;;;;;40.53;18.77;;;2.20;99.90;;;;;;5049194;28;20052;-75
2023/01/03 08:42:44;;;;;;;34.40;18.65;;;2.20;99.90;;;;;;5064497;28;20083;-76
2023/01/03 08:45:14;;;;;;;34.22;18.25;;;2.20;99.90;;;;;;5063372;28;20093;-76
2023/01/03 08:47:41;;;;;;;36.13;18.00;;;2.20;99.90;;;;;;5065289;28;20119;-76
2023/01/03 08:50:08;;;;;;;38.22;18.30;;;2.30;99.90;;;;;;5063900;28;20089;-76
2023/01/03 08:52:34;;;;;;;36.83;18.08;;;2.40;99.90;;;;;;5065829;28;20117;-76
2023/01/03 08:54:59;;;;;;;39.83;20.85;;;2.40;99.90;;;;;;5061695;28;20048;-76
2023/01/03 08:57:25;;;;;;;35.65;17.88;;;2.40;99.90;;;;;;5058024;28;20476;-76
2023/01/03 08:59:51;;;;;;;30.60;17.48;;;2.30;99.90;;;;;;5047763;28;20049;-76
2023/01/03 09:02:16;;;;;;;35.05;18.30;;;2.20;99.90;;;;;;5060738;28;20035;-77
2023/01/03 09:04:42;;;;;;;40.13;19.40;;;2.20;99.90;;;;;;5061215;28;20500;-76
2023/01/03 09:07:07;;;;;;;34.25;18.88;;;2.10;99.90;;;;;;5061574;28;20048;-76
2023/01/03 09:09:33;;;;;;;34.58;17.15;;;2.00;99.90;;;;;;5046927;28;20318;-76
2023/01/03 09:11:58;;;;;;;47.03;19.65;;;2.00;99.90;;;;;;5043965;28;20041;-77
2023/01/03 09:14:24;;;;;;;59.20;20.23;;;1.90;99.90;;;;;;5060172;28;20052;-77
2023/01/03 09:16:50;;;;;;;57.42;18.27;;;1.90;99.90;;;;;;5072864;28;20033;-76
2023/01/03 09:19:15;;;;;;;77.72;20.80;;;1.80;99.90;;;;;;5060499;28;20045;-76
2023/01/03 09:21:41;;;;;;;110.65;22.05;;;1.80;99.90;;;;;;5060245;28;20047;-76
2023/01/03 09:24:07;;;;;;;62.65;17.00;;;1.80;99.90;;;;;;5060001;28;20527;-76
2023/01/03 09:26:32;;;;;;;91.00;21.35;;;1.80;99.90;;;;;;5068714;28;20041;-76
2023/01/03 09:28:58;;;;;;;76.13;19.45;;;1.80;99.90;;;;;;5067122;28;20481;-76
2023/01/03 09:31:24;;;;;;;95.68;19.92;;;1.80;99.90;;;;;;5067938;28;20028;-76
2023/01/03 09:33:49;;;;;;;103.25;20.33;;;1.80;99.90;;;;;;5066781;28;20101;-76
2023/01/03 09:36:15;;;;;;;81.47;19.15;;;1.80;99.90;;;;;;5068081;28;20601;-76
2023/01/03 09:38:40;;;;;;;94.88;21.83;;;1.90;99.90;;;;;;5065222;28;20040;-76
2023/01/03 09:41:20;;;;;;;114.63;20.73;;;1.90;99.90;;;;;;5068324;28;20045;-76
2023/01/03 09:43:49;;;;;;;178.48;25.50;;;1.90;99.90;;;;;;5068571;28;20052;-76
2023/01/03 09:46:23;;;;;;;181.48;25.80;;;2.00;99.90;;;;;;5067272;28;20044;-76
2023/01/03 09:48:50;;;;;;;196.70;26.38;;;2.10;99.90;;;;;;5068957;28;20041;-76
2023/01/03 10:03:43;;;;;;;229.77;28.58;;;2.60;99.90;;;;;;5065803;28;20048;-76
2023/01/03 10:06:27;;;;;;;312.25;31.63;;;2.70;99.90;;;;;;5055860;28;20064;-76
2023/01/03 10:09:31;;;;;;;314.13;32.35;;;2.80;99.90;;;;;;5065471;28;20182;-76
2023/01/03 10:12:15;;;;;;;280.98;29.42;;;2.90;99.90;;;;;;5029950;28;20469;-76
2023/01/03 10:15:34;;;;;;;215.00;28.73;;;2.90;99.90;;;;;;5043249;28;20555;-76
2023/01/03 10:18:07;;;;;;;278.02;29.15;;;3.10;99.90;;;;;;4999936;28;20363;-76
2023/01/03 10:21:09;;;;;;;261.73;29.60;;;3.10;99.90;;;;;;5068146;28;20048;-76
2023/01/03 10:23:35;;;;;;;209.48;25.90;;;3.20;99.90;;;;;;5049235;28;20126;-76
2023/01/03 10:26:07;;;;;;;276.08;29.85;;;3.20;99.90;;;;;;5066915;28;20073;-76
2023/01/03 10:28:44;;;;;;;235.73;30.67;;;3.30;99.90;;;;;;5067091;28;20052;-76
2023/01/03 10:31:37;;;;;;;194.13;26.33;;;3.30;99.90;;;;;;5064578;28;20048;-76
2023/01/03 10:34:05;;;;;;;285.65;34.75;;;3.40;99.90;;;;;;5068305;28;20051;-76
2023/01/03 10:36:30;;;;;;;189.77;29.30;;;3.40;99.90;;;;;;5067463;28;20474;-76
2023/01/03 10:39:07;;;;;;;216.00;32.25;;;3.50;99.90;;;;;;5065701;28;20123;-76
2023/01/03 10:41:46;;;;;;;209.50;29.10;;;3.60;99.90;;;;;;5064439;28;20048;-76
2023/01/03 10:44:30;;;;;;;179.35;30.27;;;3.60;99.90;;;;;;5065415;28;20139;-76
2023/01/03 10:47:08;;;;;;;216.48;34.03;;;3.70;99.90;;;;;;5048783;28;20135;-76
2023/01/03 10:49:34;;;;;;;140.60;27.35;;;3.80;99.90;;;;;;5063056;28;20090;-76
2023/01/03 10:52:17;;;;;;;133.80;26.30;;;3.80;99.90;;;;;;5065758;28;20052;-76
2023/01/03 10:54:50;;;;;;;148.43;30.77;;;3.90;99.90;;;;;;5065025;28;20044;-76
2023/01/03 10:57:37;;;;;;;140.30;30.30;;;4.00;99.90;;;;;;5063129;28;20141;-76
2023/01/03 11:00:25;;;;;;;116.70;27.10;;;4.10;99.90;;;;;;5079962;28;20481;-76
2023/01/03 11:02:51;;;;;;;131.52;32.08;;;4.10;99.90;;;;;;5065650;28;20037;-76
2023/01/03 11:05:20;;;;;;;109.20;28.50;;;4.20;99.90;;;;;;5049428;28;20048;-76
2023/01/03 11:07:55;;;;;;;104.25;26.88;;;4.30;99.90;;;;;;5065296;28;20048;-76
2023/01/03 11:10:22;;;;;;;92.93;27.52;;;4.40;99.90;;;;;;5064569;28;20047;-77
2023/01/03 11:12:48;;;;;;;109.82;31.55;;;4.50;99.90;;;;;;5064565;28;20051;-77
2023/01/03 11:15:19;;;;;;;81.55;26.27;;;4.50;99.90;;;;;;5062619;28;20037;-76
2023/01/03 11:18:02;;;;;;;87.55;25.50;;;4.60;99.90;;;;;;5064148;28;20085;-76
2023/01/03 11:20:43;;;;;;;98.95;29.90;;;4.70;99.90;;;;;;5065219;28;20118;-76
2023/01/03 11:23:33;;;;;;;79.22;26.67;;;4.80;99.90;;;;;;5073578;28;20449;-76
2023/01/03 11:26:07;;;;;;;106.13;32.05;;;4.80;99.90;;;;;;5062858;28;20076;-76
2023/01/03 11:28:50;;;;;;;84.28;29.25;;;4.80;99.90;;;;;;5046195;28;20040;-76
2023/01/03 11:32:08;;;;;;;82.43;29.45;;;4.90;99.90;;;;;;5063193;28;20412;-76
2023/01/03 11:35:09;;;;;;;86.05;28.98;;;5.00;99.90;;;;;;5023687;28;20114;-76
2023/01/03 11:37:47;;;;;;;81.13;29.15;;;5.10;99.90;;;;;;5019879;28;20369;-76
2023/01/03 11:40:29;;;;;;;73.72;29.73;;;5.20;99.90;;;;;;5036566;28;20093;-76
2023/01/03 11:43:27;;;;;;;90.88;30.98;;;5.20;99.90;;;;;;5022837;28;20037;-76
2023/01/03 11:46:14;;;;;;;83.97;30.90;;;5.30;99.90;;;;;;5023815;28;20053;-76
2023/01/03 11:49:04;;;;;;;87.97;32.90;;;5.30;99.90;;;;;;5019492;28;20037;-76
2023/01/03 11:52:03;;;;;;;79.65;31.45;;;5.40;99.90;;;;;;5038443;28;20135;-76
2023/01/03 11:55:13;;;;;;;81.20;32.05;;;5.40;99.90;;;;;;5036180;28;20095;-76
2023/01/03 11:58:19;;;;;;;84.50;31.88;;;5.50;99.90;;;;;;5020187;28;20512;-76
2023/01/03 12:00:50;;;;;;;82.28;31.08;;;5.50;99.90;;;;;;5030725;28;20049;-76
2023/01/03 12:03:34;;;;;;;84.63;32.85;;;5.60;99.90;;;;;;5020832;28;20068;-76
2023/01/03 12:06:13;;;;;;;74.60;31.42;;;5.60;99.90;;;;;;5020451;28;20124;-76
2023/01/03 12:09:01;;;;;;;77.18;32.15;;;5.70;99.90;;;;;;5034071;28;20042;-76
2023/01/03 12:11:43;;;;;;;65.88;27.88;;;5.70;99.90;;;;;;5052788;28;20355;-76
2023/01/03 12:14:31;;;;;;;81.03;31.83;;;5.80;99.90;;;;;;5059563;28;20049;-76
2023/01/03 12:17:24;;;;;;;71.38;31.25;;;5.80;99.90;;;;;;5063399;28;20093;-76
2023/01/03 12:20:12;;;;;;;69.03;29.75;;;5.90;99.90;;;;;;5050221;28;20420;-76
2023/01/03 12:23:14;;;;;;;69.65;27.88;;;5.90;99.90;;;;;;5054648;28;20045;-76
2023/01/03 12:25:46;;;;;;;77.13;31.77;;;6.00;99.90;;;;;;5075767;28;20047;-76
2023/01/03 12:28:21;;;;;;;78.82;30.77;;;6.00;99.90;;;;;;5062281;28;20051;-76
2023/01/03 12:30:54;;;;;;;70.55;30.35;;;6.00;99.90;;;;;;5054687;28;20037;-76
2023/01/03 12:33:53;;;;;;;79.82;32.35;;;6.10;99.90;;;;;;5045606;28;20044;-76
2023/01/03 12:36:53;;;;;;;75.78;30.05;;;6.10;99.90;;;;;;5062377;28;20525;-77
2023/01/03 12:39:41;;;;;;;72.68;31.95;;;6.20;99.90;;;;;;5062922;28;20491;-76
2023/01/03 12:42:34;;;;;;;67.03;27.70;;;6.20;99.90;;;;;;5057269;28;20614;-76
2023/01/03 12:44:59;;;;;;;75.47;30.05;;;6.30;99.90;;;;;;5061863;28;20072;-76
2023/01/03 12:47:39;;;;;;;70.78;29.17;;;6.30;99.90;;;;;;5064470;28;20074;-76
2023/01/03 12:50:17;;;;;;;65.15;28.25;;;6.30;99.90;;;;;;5062060;28;20154;-76
2023/01/03 12:52:47;;;;;;;59.33;26.23;;;6.40;99.90;;;;;;5061628;28;20059;-76
2023/01/03 12:55:43;;;;;;;68.53;27.98;;;6.40;99.90;;;;;;5046770;28;20389;-76
2023/01/03 12:58:21;;;;;;;57.35;25.65;;;6.40;99.90;;;;;;5063565;28;20461;-76
2023/01/03 13:01:07;;;;;;;58.60;26.00;;;6.50;99.90;;;;;;5044042;28;20403;-76
2023/01/03 13:03:56;;;;;;;49.15;23.95;;;6.50;99.90;;;;;;5061303;28;20396;-76
2023/01/03 13:06:33;;;;;;;49.47;23.00;;;6.50;99.90;;;;;;5062808;28;20476;-76
2023/01/03 13:09:03;;;;;;;52.33;23.30;;;6.50;99.90;;;;;;5062808;28;20119;-76
2023/01/03 13:11:34;;;;;;;54.15;23.30;;;6.60;99.90;;;;;;5063497;28;20193;-76
2023/01/03 13:14:25;;;;;;;44.45;21.65;;;6.60;99.90;;;;;;5061786;28;20086;-76
2023/01/03 13:16:55;;;;;;;43.83;20.38;;;6.60;99.90;;;;;;5063160;28;20095;-76
2023/01/03 13:19:21;;;;;;;37.83;17.38;;;6.70;99.90;;;;;;5075912;28;20562;-76
2023/01/03 13:21:52;;;;;;;45.38;21.48;;;6.70;99.90;;;;;;5062132;28;20036;-76
2023/01/03 13:24:46;;;;;;;40.95;19.60;;;6.70;99.90;;;;;;5061742;28;20040;-77
2023/01/03 13:27:18;;;;;;;45.05;21.30;;;6.80;99.90;;;;;;5058616;28;20105;-76
2023/01/03 13:29:49;;;;;;;42.03;19.00;;;6.80;99.90;;;;;;5046886;28;20080;-76
2023/01/03 13:32:26;;;;;;;35.90;19.20;;;6.80;99.90;;;;;;5062869;28;20040;-76
2023/01/03 13:34:55;;;;;;;41.08;19.73;;;6.90;99.90;;;;;;5046073;28;20119;-76
2023/01/03 13:37:40;;;;;;;39.60;19.48;;;6.90;99.90;;;;;;5064034;28;20040;-76
2023/01/03 13:40:12;;;;;;;38.10;20.48;;;6.90;99.90;;;;;;5063615;28;20056;-76
2023/01/03 13:42:39;;;;;;;36.33;17.85;;;6.90;99.90;;;;;;5076885;28;20080;-76
2023/01/03 13:45:14;;;;;;;36.80;18.60;;;6.90;99.90;;;;;;5046262;28;20047;-76
2023/01/03 13:47:41;;;;;;;40.53;19.52;;;6.90;99.90;;;;;;5078435;28;20040;-76
2023/01/03 13:50:24;;;;;;;37.30;18.88;;;6.90;99.90;;;;;;5059766;28;20075;-76
2023/01/03 13:53:03;;;;;;;35.33;19.08;;;6.90;99.90;;;;;;5057747;28;20044;-76
2023/01/03 13:55:46;;;;;;;41.95;20.13;;;6.90;99.90;;;;;;5045045;28;20044;-77
2023/01/03 13:58:26;;;;;;;36.45;17.08;;;6.90;99.90;;;;;;5061688;28;20046;-76
2023/01/03 14:00:58;;;;;;;32.67;16.73;;;6.90;99.90;;;;;;5062793;28;20058;-76
2023/01/03 14:03:30;;;;;;;38.22;18.83;;;6.90;99.90;;;;;;5046321;28;20036;-76
2023/01/03 14:06:17;;;;;;;32.35;17.05;;;6.90;99.90;;;;;;5063033;28;20070;-76
2023/01/03 14:09:12;;;;;;;39.15;18.10;;;7.00;99.90;;;;;;5060444;28;20086;-76
2023/01/03 14:11:56;;;;;;;38.42;18.13;;;7.00;99.90;;;;;;5034844;28;20534;-76